Huvudsida
METAR-TAF:

METAR-TAF

Flygplatser :

Osh Airport

Osj, Kirgizistan

latitud: 40-36-32N, longitud: 072-47-35E, höjd: 892 m

Aktuellt väderrapport

Denna rapport gjordes för 17 minuter sedan, klockan 08:30 UTC
Vind 4 kt från väst/nordväst
Temperatur 16°C
Fuktighet 34%
Tryck 1024 hPa
Sikt 10 km eller mer
Inga moln under 1 500 m eller inga cumulonimbus

METAR: UCFO 210830Z 30002MPS CAVOK 16/M00 Q1024 R12/CLRD70 NOSIG

Tid: 14:47 (08:47 UTC)

Väderprognos

Denna rapport gjordes för 4 timmar och 1 minuter sedan, klockan 04:46 UTC
Prognos gäller från 21 kl. 06 UTC till 22 kl. 06 UTC
Vind 6 kt från väst i byarna ända upp till 16 kt
Sikt: 8000 m
Temporärt
från 21 kl. 06 UTC till 21 kl. 12 UTC
Vind 10 kt från ost
Sikt: 2000 m
Få moln på en höjd av 5000 ft, Cumulonimbus.
fuktdis, rök
Blir
från 21 kl. 12 UTC till 21 kl. 14 UTC
Vind 10 kt från syd

TAF: UCFO 210446Z 2106/2206 27003G08MPS 8000 NSC TEMPO 2106/2112 09005MPS 2000 BR FU FEW050CB BECMG 2112/2114 17005MPS

Aktuella väderrapporter och prognoser från 4000 flygplatser (METAR- och TAF-rapporter).

De tillgängliga stationerna syns som gula och röda prickar på kartan.

För musen över prickarna för att se namnen på stationerna.

Klicka sedan för att få väderrapporter och prognoser.

För att ändra kartan: Klicka på de gröna knapparna med ett svart kors på för att zooma in; den gröna knappen med ett streck på för att zooma ut; eller på de gröna pilarna för angränsande kartor.


METAR-TAF: